Longmire, WA

4:24 PM PST on December 04, 2016 (GMT -0800)
Alpine Village | | Change Station

Elev 1842 ft 46.76 °N, 121.99 °W | Updated 49 seconds ago

Light Snow
Light Snow Freezing Fog
33.4 °F
Feels Like 33 °F
N
0.0
Wind Variable Wind from SW
Gusts 0.0 mph

Today
High -- | Low -- °F
--% Chance of Precip.
Yesterday
High -- | Low -- °F
Precip. -- in
Pressure 29.93 in
Visibility 0.5 miles
Clouds
Windchill 33 °F
Dew Point 31 °F
Humidity 91%
Rainfall 0.25 in
Snow Depth Not available.
7:35 AM 4:19 PM
Waxing Crescent, 26% visible
SPECI KSMP 050011Z AUTO VRB05KT 1/2SM -SN FZFG VV004 M05/M05 A2993 RMK AO2 P0000 T10501050 FZRANO $
Pressure 29.93 in
Visibility 0.5 miles
Clouds
Windchill 33 °F
Dew Point 31 °F
Humidity 91%
Rainfall 0.25 in
Snow Depth Not available.
7:35 AM 4:19 PM
Waxing Crescent, 26% visible
SPECI KSMP 050011Z AUTO VRB05KT 1/2SM -SN FZFG VV004 M05/M05 A2993 RMK AO2 P0000 T10501050 FZRANO $

10-Day Weather Forecast

Almanac

Astronomy

Dec. 04, 2016 Rise Set
Actual Time
Civil Twilight
Nautical Twilight
Astronomical Twilight
Moon
Length of Visible Light
Length of Day
Tomorrow will be .
, % of the Moon is Illuminated

Today's Extremes

State Highs State Lows

Community

WunderPhotos

Upload Photos

1,955,724 photos uploaded!

WunderBlog® & News

Nearby

Air Quality

  Air Quality AQ Index Pollutant
Not available.

Snow Depth

Station Depth Elevation

Earthquake Activity

City Distance Mag. Time & Date
Minimum magnitude displayed is 2.5.

Coastal Water Temperatures

Place Temperature

Stations

Nearby Weather Stations

Station Location Temp. Windchill Dew Point Humidity Wind Precip. Elev Updated Type
                   

Watches & Warnings

There are currently no watches in effect.